sensor_id;sensor_type;location;lat;lon;timestamp;temperature;humidity
59572;DHT22;70118;45.638;11.714;2023-07-13T00:01:17;30.10;78.80
59572;DHT22;70118;45.638;11.714;2023-07-13T00:03:45;30.10;78.60
59572;DHT22;70118;45.638;11.714;2023-07-13T00:06:11;30.20;78.80
59572;DHT22;70118;45.638;11.714;2023-07-13T00:08:38;30.10;78.80
59572;DHT22;70118;45.638;11.714;2023-07-13T00:11:04;30.10;78.70
59572;DHT22;70118;45.638;11.714;2023-07-13T00:13:32;30.10;78.80
59572;DHT22;70118;45.638;11.714;2023-07-13T00:15:58;30.20;78.80
59572;DHT22;70118;45.638;11.714;2023-07-13T00:18:27;30.10;78.80
59572;DHT22;70118;45.638;11.714;2023-07-13T00:21:03;30.10;78.80
59572;DHT22;70118;45.638;11.714;2023-07-13T00:23:34;30.10;78.80
59572;DHT22;70118;45.638;11.714;2023-07-13T00:26:03;30.10;78.70
59572;DHT22;70118;45.638;11.714;2023-07-13T00:28:36;30.10;78.50
59572;DHT22;70118;45.638;11.714;2023-07-13T00:31:13;30.00;78.60
59572;DHT22;70118;45.638;11.714;2023-07-13T00:34:09;30.10;78.70
59572;DHT22;70118;45.638;11.714;2023-07-13T00:36:40;30.10;78.80
59572;DHT22;70118;45.638;11.714;2023-07-13T00:39:06;30.00;78.60
59572;DHT22;70118;45.638;11.714;2023-07-13T00:41:33;30.00;78.80
59572;DHT22;70118;45.638;11.714;2023-07-13T00:44:00;30.00;78.80
59572;DHT22;70118;45.638;11.714;2023-07-13T00:46:32;30.00;78.80
59572;DHT22;70118;45.638;11.714;2023-07-13T00:49:02;30.00;78.70
59572;DHT22;70118;45.638;11.714;2023-07-13T00:54:27;30.00;78.40
59572;DHT22;70118;45.638;11.714;2023-07-13T00:56:55;30.00;78.30
59572;DHT22;70118;45.638;11.714;2023-07-13T00:59:22;30.00;78.50
59572;DHT22;70118;45.638;11.714;2023-07-13T01:01:49;30.00;78.50
59572;DHT22;70118;45.638;11.714;2023-07-13T01:04:16;30.00;78.40
59572;DHT22;70118;45.638;11.714;2023-07-13T01:06:42;30.00;78.60
59572;DHT22;70118;45.638;11.714;2023-07-13T01:09:10;29.90;78.60
59572;DHT22;70118;45.638;11.714;2023-07-13T01:11:36;30.00;78.60
59572;DHT22;70118;45.638;11.714;2023-07-13T01:14:03;30.00;78.80
59572;DHT22;70118;45.638;11.714;2023-07-13T01:16:31;30.00;78.90
59572;DHT22;70118;45.638;11.714;2023-07-13T01:18:58;29.90;78.90
59572;DHT22;70118;45.638;11.714;2023-07-13T01:21:25;30.00;79.00
59572;DHT22;70118;45.638;11.714;2023-07-13T01:23:51;30.00;78.90
59572;DHT22;70118;45.638;11.714;2023-07-13T01:26:17;29.90;78.90
59572;DHT22;70118;45.638;11.714;2023-07-13T01:28:44;30.00;78.90
59572;DHT22;70118;45.638;11.714;2023-07-13T01:31:10;29.90;78.90
59572;DHT22;70118;45.638;11.714;2023-07-13T01:33:40;30.00;78.90
59572;DHT22;70118;45.638;11.714;2023-07-13T01:36:08;30.00;78.90
59572;DHT22;70118;45.638;11.714;2023-07-13T01:38:35;29.90;78.90
59572;DHT22;70118;45.638;11.714;2023-07-13T01:41:01;30.00;78.90
59572;DHT22;70118;45.638;11.714;2023-07-13T01:43:27;30.00;79.00
59572;DHT22;70118;45.638;11.714;2023-07-13T01:45:53;29.90;79.00
59572;DHT22;70118;45.638;11.714;2023-07-13T01:48:19;30.00;79.10
59572;DHT22;70118;45.638;11.714;2023-07-13T01:50:46;30.00;79.00
59572;DHT22;70118;45.638;11.714;2023-07-13T01:53:12;29.90;79.00
59572;DHT22;70118;45.638;11.714;2023-07-13T01:55:38;29.90;79.20
59572;DHT22;70118;45.638;11.714;2023-07-13T01:58:05;29.90;79.20
59572;DHT22;70118;45.638;11.714;2023-07-13T03:24:40;27.80;88.20
59572;DHT22;70118;45.638;11.714;2023-07-13T03:27:06;29.60;81.10
59572;DHT22;70118;45.638;11.714;2023-07-13T03:29:32;29.50;80.90
59572;DHT22;70118;45.638;11.714;2023-07-13T03:31:58;29.60;80.80
59572;DHT22;70118;45.638;11.714;2023-07-13T03:34:24;29.70;80.80
59572;DHT22;70118;45.638;11.714;2023-07-13T03:36:50;29.70;80.80
59572;DHT22;70118;45.638;11.714;2023-07-13T03:39:16;29.70;80.70
59572;DHT22;70118;45.638;11.714;2023-07-13T03:41:42;29.60;80.60
59572;DHT22;70118;45.638;11.714;2023-07-13T03:44:08;29.60;80.50
59572;DHT22;70118;45.638;11.714;2023-07-13T03:46:33;29.80;80.60
59572;DHT22;70118;45.638;11.714;2023-07-13T03:48:59;29.70;80.50
59572;DHT22;70118;45.638;11.714;2023-07-13T03:51:25;29.60;80.60
59572;DHT22;70118;45.638;11.714;2023-07-13T03:53:51;29.70;80.40
59572;DHT22;70118;45.638;11.714;2023-07-13T03:56:18;29.60;80.50
59572;DHT22;70118;45.638;11.714;2023-07-13T03:58:46;29.70;80.60
59572;DHT22;70118;45.638;11.714;2023-07-13T04:01:13;29.80;80.40
59572;DHT22;70118;45.638;11.714;2023-07-13T04:03:40;29.70;80.40
59572;DHT22;70118;45.638;11.714;2023-07-13T04:06:08;29.70;80.40
59572;DHT22;70118;45.638;11.714;2023-07-13T04:08:40;29.70;80.50
59572;DHT22;70118;45.638;11.714;2023-07-13T04:11:07;29.70;80.40
59572;DHT22;70118;45.638;11.714;2023-07-13T04:13:32;29.20;79.50
59572;DHT22;70118;45.638;11.714;2023-07-13T04:15:58;27.70;84.00
59572;DHT22;70118;45.638;11.714;2023-07-13T04:18:24;26.40;93.10
59572;DHT22;70118;45.638;11.714;2023-07-13T04:20:50;25.80;99.90
59572;DHT22;70118;45.638;11.714;2023-07-13T04:23:17;25.50;99.90
59572;DHT22;70118;45.638;11.714;2023-07-13T04:25:44;25.40;99.90
59572;DHT22;70118;45.638;11.714;2023-07-13T04:28:10;25.40;99.90
59572;DHT22;70118;45.638;11.714;2023-07-13T04:30:36;25.30;99.90
59572;DHT22;70118;45.638;11.714;2023-07-13T04:33:02;25.10;99.90
59572;DHT22;70118;45.638;11.714;2023-07-13T04:35:28;25.10;99.90
59572;DHT22;70118;45.638;11.714;2023-07-13T04:37:54;25.10;99.90
59572;DHT22;70118;45.638;11.714;2023-07-13T04:40:20;25.20;99.90
59572;DHT22;70118;45.638;11.714;2023-07-13T04:42:46;25.30;99.90
59572;DHT22;70118;45.638;11.714;2023-07-13T04:45:14;25.50;99.90
59572;DHT22;70118;45.638;11.714;2023-07-13T04:47:40;25.40;99.90
59572;DHT22;70118;45.638;11.714;2023-07-13T04:50:07;25.10;99.90
59572;DHT22;70118;45.638;11.714;2023-07-13T04:52:34;25.10;99.90
59572;DHT22;70118;45.638;11.714;2023-07-13T04:55:00;25.20;99.90
59572;DHT22;70118;45.638;11.714;2023-07-13T04:57:27;25.50;99.90
59572;DHT22;70118;45.638;11.714;2023-07-13T04:59:53;25.70;99.90
59572;DHT22;70118;45.638;11.714;2023-07-13T05:02:20;25.80;99.90
59572;DHT22;70118;45.638;11.714;2023-07-13T05:04:47;25.60;99.90
59572;DHT22;70118;45.638;11.714;2023-07-13T05:07:13;25.20;99.90
59572;DHT22;70118;45.638;11.714;2023-07-13T05:09:39;25.00;99.90
59572;DHT22;70118;45.638;11.714;2023-07-13T05:12:09;25.00;99.90
59572;DHT22;70118;45.638;11.714;2023-07-13T05:14:35;24.90;99.90
59572;DHT22;70118;45.638;11.714;2023-07-13T05:17:01;24.90;99.90
59572;DHT22;70118;45.638;11.714;2023-07-13T05:19:28;25.10;99.90
59572;DHT22;70118;45.638;11.714;2023-07-13T05:21:53;25.30;99.90
59572;DHT22;70118;45.638;11.714;2023-07-13T05:24:19;25.40;99.90
59572;DHT22;70118;45.638;11.714;2023-07-13T05:26:45;25.60;99.90
59572;DHT22;70118;45.638;11.714;2023-07-13T05:29:11;25.70;99.90
59572;DHT22;70118;45.638;11.714;2023-07-13T05:31:37;26.00;99.90
59572;DHT22;70118;45.638;11.714;2023-07-13T05:34:03;26.20;99.90
59572;DHT22;70118;45.638;11.714;2023-07-13T05:36:29;26.50;99.90
59572;DHT22;70118;45.638;11.714;2023-07-13T05:38:54;26.90;96.70
59572;DHT22;70118;45.638;11.714;2023-07-13T05:41:21;27.20;94.20
59572;DHT22;70118;45.638;11.714;2023-07-13T05:43:47;27.50;92.30
59572;DHT22;70118;45.638;11.714;2023-07-13T05:46:12;27.70;90.90
59572;DHT22;70118;45.638;11.714;2023-07-13T05:48:40;27.90;90.00
59572;DHT22;70118;45.638;11.714;2023-07-13T05:51:06;28.00;89.50
59572;DHT22;70118;45.638;11.714;2023-07-13T05:53:31;28.00;89.00
59572;DHT22;70118;45.638;11.714;2023-07-13T05:55:57;28.20;88.20
59572;DHT22;70118;45.638;11.714;2023-07-13T05:58:24;28.20;87.80
59572;DHT22;70118;45.638;11.714;2023-07-13T06:01:01;28.20;88.00
59572;DHT22;70118;45.638;11.714;2023-07-13T06:03:27;28.30;88.10
59572;DHT22;70118;45.638;11.714;2023-07-13T06:05:54;28.30;87.30
59572;DHT22;70118;45.638;11.714;2023-07-13T06:08:22;28.50;87.10
59572;DHT22;70118;45.638;11.714;2023-07-13T06:10:49;28.40;86.90
59572;DHT22;70118;45.638;11.714;2023-07-13T06:13:16;28.50;86.70
59572;DHT22;70118;45.638;11.714;2023-07-13T06:15:42;28.50;86.40
59572;DHT22;70118;45.638;11.714;2023-07-13T06:18:08;28.60;86.50
59572;DHT22;70118;45.638;11.714;2023-07-13T06:20:34;28.60;87.30
59572;DHT22;70118;45.638;11.714;2023-07-13T06:23:02;28.20;92.00
59572;DHT22;70118;45.638;11.714;2023-07-13T06:25:28;27.70;96.70
59572;DHT22;70118;45.638;11.714;2023-07-13T06:27:54;27.70;95.40
59572;DHT22;70118;45.638;11.714;2023-07-13T06:30:20;27.70;94.60
59572;DHT22;70118;45.638;11.714;2023-07-13T06:32:46;27.90;93.10
59572;DHT22;70118;45.638;11.714;2023-07-13T06:35:12;28.10;91.50
59572;DHT22;70118;45.638;11.714;2023-07-13T06:37:38;28.20;90.00
59572;DHT22;70118;45.638;11.714;2023-07-13T06:40:05;28.40;89.10
59572;DHT22;70118;45.638;11.714;2023-07-13T06:42:31;28.50;88.10
59572;DHT22;70118;45.638;11.714;2023-07-13T06:44:57;28.60;87.50
59572;DHT22;70118;45.638;11.714;2023-07-13T06:47:23;28.60;87.30
59572;DHT22;70118;45.638;11.714;2023-07-13T06:49:49;28.60;87.10
59572;DHT22;70118;45.638;11.714;2023-07-13T06:52:15;28.50;88.50
59572;DHT22;70118;45.638;11.714;2023-07-13T06:54:41;28.40;89.30
59572;DHT22;70118;45.638;11.714;2023-07-13T06:57:07;28.30;89.70
59572;DHT22;70118;45.638;11.714;2023-07-13T06:59:33;28.40;89.40
59572;DHT22;70118;45.638;11.714;2023-07-13T07:01:59;28.30;88.80
59572;DHT22;70118;45.638;11.714;2023-07-13T07:04:25;28.50;88.10
59572;DHT22;70118;45.638;11.714;2023-07-13T07:06:50;28.60;87.90
59572;DHT22;70118;45.638;11.714;2023-07-13T07:09:16;28.60;88.10
59572;DHT22;70118;45.638;11.714;2023-07-13T07:11:42;28.60;87.80
59572;DHT22;70118;45.638;11.714;2023-07-13T07:14:08;28.60;87.50
59572;DHT22;70118;45.638;11.714;2023-07-13T07:16:34;28.80;87.10
59572;DHT22;70118;45.638;11.714;2023-07-13T07:19:00;28.80;87.00
59572;DHT22;70118;45.638;11.714;2023-07-13T07:21:26;28.70;86.80
59572;DHT22;70118;45.638;11.714;2023-07-13T07:23:52;28.80;86.50
59572;DHT22;70118;45.638;11.714;2023-07-13T07:26:18;28.70;87.60
59572;DHT22;70118;45.638;11.714;2023-07-13T07:28:44;28.70;87.50
59572;DHT22;70118;45.638;11.714;2023-07-13T07:31:11;28.80;87.40
59572;DHT22;70118;45.638;11.714;2023-07-13T07:33:37;28.70;88.50
59572;DHT22;70118;45.638;11.714;2023-07-13T07:36:03;28.60;90.10
59572;DHT22;70118;45.638;11.714;2023-07-13T07:38:29;28.20;92.50
59572;DHT22;70118;45.638;11.714;2023-07-13T07:40:55;28.00;94.60
59572;DHT22;70118;45.638;11.714;2023-07-13T07:43:22;27.90;96.90
59572;DHT22;70118;45.638;11.714;2023-07-13T07:45:48;27.70;97.20
59572;DHT22;70118;45.638;11.714;2023-07-13T07:48:14;27.80;95.50
59572;DHT22;70118;45.638;11.714;2023-07-13T07:50:40;28.10;96.20
59572;DHT22;70118;45.638;11.714;2023-07-13T07:53:07;28.00;95.90
59572;DHT22;70118;45.638;11.714;2023-07-13T07:55:34;27.80;96.40
59572;DHT22;70118;45.638;11.714;2023-07-13T07:58:00;27.90;95.70
59572;DHT22;70118;45.638;11.714;2023-07-13T08:00:26;27.90;95.90
59572;DHT22;70118;45.638;11.714;2023-07-13T08:02:54;28.10;94.40
59572;DHT22;70118;45.638;11.714;2023-07-13T08:05:21;28.20;93.50
59572;DHT22;70118;45.638;11.714;2023-07-13T08:07:46;28.30;92.60
59572;DHT22;70118;45.638;11.714;2023-07-13T08:10:12;28.30;92.70
59572;DHT22;70118;45.638;11.714;2023-07-13T08:12:40;28.40;93.00
59572;DHT22;70118;45.638;11.714;2023-07-13T08:15:09;28.30;93.70
59572;DHT22;70118;45.638;11.714;2023-07-13T08:17:35;28.30;93.20
59572;DHT22;70118;45.638;11.714;2023-07-13T08:20:01;28.40;92.90
59572;DHT22;70118;45.638;11.714;2023-07-13T08:22:27;28.40;92.40
59572;DHT22;70118;45.638;11.714;2023-07-13T08:24:53;28.50;91.70
59572;DHT22;70118;45.638;11.714;2023-07-13T08:27:25;28.60;90.60
59572;DHT22;70118;45.638;11.714;2023-07-13T08:29:52;28.60;90.60
59572;DHT22;70118;45.638;11.714;2023-07-13T08:32:20;28.60;90.60
59572;DHT22;70118;45.638;11.714;2023-07-13T08:34:46;28.70;90.30
59572;DHT22;70118;45.638;11.714;2023-07-13T08:37:12;28.70;90.00
59572;DHT22;70118;45.638;11.714;2023-07-13T08:39:38;28.70;90.10
59572;DHT22;70118;45.638;11.714;2023-07-13T08:47:32;28.60;92.60
59572;DHT22;70118;45.638;11.714;2023-07-13T08:49:59;28.50;91.80
59572;DHT22;70118;45.638;11.714;2023-07-13T08:52:31;28.70;91.30
59572;DHT22;70118;45.638;11.714;2023-07-13T08:55:05;28.70;91.00
59572;DHT22;70118;45.638;11.714;2023-07-13T08:57:35;28.70;91.60
59572;DHT22;70118;45.638;11.714;2023-07-13T09:00:03;28.70;91.00
59572;DHT22;70118;45.638;11.714;2023-07-13T09:05:22;28.80;91.50
59572;DHT22;70118;45.638;11.714;2023-07-13T09:10:46;28.80;94.20
59572;DHT22;70118;45.638;11.714;2023-07-13T09:13:34;28.50;96.40
59572;DHT22;70118;45.638;11.714;2023-07-13T09:16:01;28.20;98.40
59572;DHT22;70118;45.638;11.714;2023-07-13T09:18:38;28.00;99.90
59572;DHT22;70118;45.638;11.714;2023-07-13T09:23:43;27.60;99.90
59572;DHT22;70118;45.638;11.714;2023-07-13T09:26:21;27.60;99.90
59572;DHT22;70118;45.638;11.714;2023-07-13T09:28:55;27.60;99.90
59572;DHT22;70118;45.638;11.714;2023-07-13T09:31:43;27.60;99.90
59572;DHT22;70118;45.638;11.714;2023-07-13T09:34:12;27.90;99.90
59572;DHT22;70118;45.638;11.714;2023-07-13T09:36:40;27.90;99.90
59572;DHT22;70118;45.638;11.714;2023-07-13T09:42:15;27.80;99.90
59572;DHT22;70118;45.638;11.714;2023-07-13T09:44:53;27.70;99.90
59572;DHT22;70118;45.638;11.714;2023-07-13T09:47:23;27.80;99.90
59572;DHT22;70118;45.638;11.714;2023-07-13T09:50:01;27.90;99.90
59572;DHT22;70118;45.638;11.714;2023-07-13T09:52:28;28.20;99.90
59572;DHT22;70118;45.638;11.714;2023-07-13T09:55:11;28.30;99.90
59572;DHT22;70118;45.638;11.714;2023-07-13T09:57:48;28.50;99.40
59572;DHT22;70118;45.638;11.714;2023-07-13T10:00:30;28.60;97.40
59572;DHT22;70118;45.638;11.714;2023-07-13T10:03:14;28.60;98.50
59572;DHT22;70118;45.638;11.714;2023-07-13T10:05:45;28.30;99.90
59572;DHT22;70118;45.638;11.714;2023-07-13T10:10:44;28.00;99.90
59572;DHT22;70118;45.638;11.714;2023-07-13T10:13:37;28.10;99.90
59572;DHT22;70118;45.638;11.714;2023-07-13T10:16:07;28.30;99.90
59572;DHT22;70118;45.638;11.714;2023-07-13T10:18:49;28.40;99.90
59572;DHT22;70118;45.638;11.714;2023-07-13T10:21:21;28.30;99.90
59572;DHT22;70118;45.638;11.714;2023-07-13T10:23:53;28.40;99.90
59572;DHT22;70118;45.638;11.714;2023-07-13T10:26:26;28.50;99.90
59572;DHT22;70118;45.638;11.714;2023-07-13T10:28:57;28.60;99.90
59572;DHT22;70118;45.638;11.714;2023-07-13T10:31:24;28.70;98.60
59572;DHT22;70118;45.638;11.714;2023-07-13T10:33:50;28.80;97.10
59572;DHT22;70118;45.638;11.714;2023-07-13T10:36:37;28.90;95.60
59572;DHT22;70118;45.638;11.714;2023-07-13T10:39:05;29.00;95.70
59572;DHT22;70118;45.638;11.714;2023-07-13T10:41:35;29.00;94.80
59572;DHT22;70118;45.638;11.714;2023-07-13T10:44:03;29.10;94.40
59572;DHT22;70118;45.638;11.714;2023-07-13T10:46:30;29.00;93.50
59572;DHT22;70118;45.638;11.714;2023-07-13T10:49:02;29.10;93.50
59572;DHT22;70118;45.638;11.714;2023-07-13T10:51:30;29.00;93.70
59572;DHT22;70118;45.638;11.714;2023-07-13T10:54:12;29.00;93.20
59572;DHT22;70118;45.638;11.714;2023-07-13T10:56:42;29.10;92.90
59572;DHT22;70118;45.638;11.714;2023-07-13T10:59:26;29.10;92.20
59572;DHT22;70118;45.638;11.714;2023-07-13T11:02:15;29.10;90.90
59572;DHT22;70118;45.638;11.714;2023-07-13T11:04:47;29.10;89.30
59572;DHT22;70118;45.638;11.714;2023-07-13T11:07:25;29.20;90.30
59572;DHT22;70118;45.638;11.714;2023-07-13T11:09:53;29.20;91.50
59572;DHT22;70118;45.638;11.714;2023-07-13T11:22:45;29.20;91.30
59572;DHT22;70118;45.638;11.714;2023-07-13T11:30:46;29.20;89.20
59572;DHT22;70118;45.638;11.714;2023-07-13T11:33:17;29.30;88.80
59572;DHT22;70118;45.638;11.714;2023-07-13T11:36:06;29.30;89.00
59572;DHT22;70118;45.638;11.714;2023-07-13T11:43:41;29.30;87.80
59572;DHT22;70118;45.638;11.714;2023-07-13T11:46:24;29.30;88.40
59572;DHT22;70118;45.638;11.714;2023-07-13T11:48:52;29.40;87.70
59572;DHT22;70118;45.638;11.714;2023-07-13T11:51:33;29.40;87.50
59572;DHT22;70118;45.638;11.714;2023-07-13T11:56:44;29.30;85.90
59572;DHT22;70118;45.638;11.714;2023-07-13T11:59:13;29.30;86.20
59572;DHT22;70118;45.638;11.714;2023-07-13T12:01:46;29.40;86.00
59572;DHT22;70118;45.638;11.714;2023-07-13T12:04:33;29.30;85.50
59572;DHT22;70118;45.638;11.714;2023-07-13T12:07:11;29.20;84.80
59572;DHT22;70118;45.638;11.714;2023-07-13T12:09:39;29.30;84.90
59572;DHT22;70118;45.638;11.714;2023-07-13T12:12:16;29.30;85.10
59572;DHT22;70118;45.638;11.714;2023-07-13T12:14:43;29.30;84.20
59572;DHT22;70118;45.638;11.714;2023-07-13T12:17:21;29.20;84.70
59572;DHT22;70118;45.638;11.714;2023-07-13T12:19:48;29.30;83.90
59572;DHT22;70118;45.638;11.714;2023-07-13T12:22:17;29.30;84.30
59572;DHT22;70118;45.638;11.714;2023-07-13T12:24:44;29.20;84.10
59572;DHT22;70118;45.638;11.714;2023-07-13T12:27:21;29.30;83.90
59572;DHT22;70118;45.638;11.714;2023-07-13T12:30:15;29.20;83.30
59572;DHT22;70118;45.638;11.714;2023-07-13T12:33:06;29.20;83.00
59572;DHT22;70118;45.638;11.714;2023-07-13T12:35:51;29.30;82.90
59572;DHT22;70118;45.638;11.714;2023-07-13T12:38:18;29.30;83.00
59572;DHT22;70118;45.638;11.714;2023-07-13T12:40:50;29.20;83.20
59572;DHT22;70118;45.638;11.714;2023-07-13T12:43:17;29.20;82.90
59572;DHT22;70118;45.638;11.714;2023-07-13T12:46:14;29.20;83.00
59572;DHT22;70118;45.638;11.714;2023-07-13T12:48:42;29.30;82.30
59572;DHT22;70118;45.638;11.714;2023-07-13T12:51:13;29.20;82.70
59572;DHT22;70118;45.638;11.714;2023-07-13T12:53:43;29.20;82.60
59572;DHT22;70118;45.638;11.714;2023-07-13T12:56:18;29.20;82.50
59572;DHT22;70118;45.638;11.714;2023-07-13T12:58:45;29.30;82.20
59572;DHT22;70118;45.638;11.714;2023-07-13T13:01:14;29.30;82.30
59572;DHT22;70118;45.638;11.714;2023-07-13T13:03:51;29.10;82.30
59572;DHT22;70118;45.638;11.714;2023-07-13T13:08:50;29.20;82.10
59572;DHT22;70118;45.638;11.714;2023-07-13T13:11:16;29.20;82.00
59572;DHT22;70118;45.638;11.714;2023-07-13T13:13:43;29.20;81.90
59572;DHT22;70118;45.638;11.714;2023-07-13T13:16:21;29.10;81.90
59572;DHT22;70118;45.638;11.714;2023-07-13T13:18:49;29.20;81.60
59572;DHT22;70118;45.638;11.714;2023-07-13T13:21:16;29.10;81.70
59572;DHT22;70118;45.638;11.714;2023-07-13T13:23:42;29.20;81.50
59572;DHT22;70118;45.638;11.714;2023-07-13T13:26:12;29.10;81.60
59572;DHT22;70118;45.638;11.714;2023-07-13T13:28:38;29.10;81.40
59572;DHT22;70118;45.638;11.714;2023-07-13T13:31:04;29.10;81.40
59572;DHT22;70118;45.638;11.714;2023-07-13T13:33:30;29.20;81.40
59572;DHT22;70118;45.638;11.714;2023-07-13T13:35:56;29.10;81.40
59572;DHT22;70118;45.638;11.714;2023-07-13T13:38:27;29.10;81.30
59572;DHT22;70118;45.638;11.714;2023-07-13T13:40:54;29.20;81.00
59572;DHT22;70118;45.638;11.714;2023-07-13T13:43:23;29.20;81.20
59572;DHT22;70118;45.638;11.714;2023-07-13T13:45:59;29.10;81.20
59572;DHT22;70118;45.638;11.714;2023-07-13T13:48:33;29.10;80.90
59572;DHT22;70118;45.638;11.714;2023-07-13T13:51:03;29.10;80.90
59572;DHT22;70118;45.638;11.714;2023-07-13T13:53:35;29.10;81.10
59572;DHT22;70118;45.638;11.714;2023-07-13T13:56:07;29.10;80.90
59572;DHT22;70118;45.638;11.714;2023-07-13T13:58:33;29.00;80.10
59572;DHT22;70118;45.638;11.714;2023-07-13T14:00:59;29.10;80.20
59572;DHT22;70118;45.638;11.714;2023-07-13T14:03:27;29.10;80.90
59572;DHT22;70118;45.638;11.714;2023-07-13T14:05:53;29.00;80.20
59572;DHT22;70118;45.638;11.714;2023-07-13T14:08:20;29.10;80.80
59572;DHT22;70118;45.638;11.714;2023-07-13T14:10:51;29.00;80.00
59572;DHT22;70118;45.638;11.714;2023-07-13T14:13:40;29.00;80.00
59572;DHT22;70118;45.638;11.714;2023-07-13T14:16:12;29.10;79.70
59572;DHT22;70118;45.638;11.714;2023-07-13T14:18:40;29.00;80.00
59572;DHT22;70118;45.638;11.714;2023-07-13T14:21:15;29.10;80.10
59572;DHT22;70118;45.638;11.714;2023-07-13T14:23:44;29.10;80.60
59572;DHT22;70118;45.638;11.714;2023-07-13T14:26:12;29.10;80.70
59572;DHT22;70118;45.638;11.714;2023-07-13T14:28:42;29.20;80.70
59572;DHT22;70118;45.638;11.714;2023-07-13T14:31:09;29.20;80.70
59572;DHT22;70118;45.638;11.714;2023-07-13T14:33:35;29.10;81.00
59572;DHT22;70118;45.638;11.714;2023-07-13T14:36:02;29.20;80.90
59572;DHT22;70118;45.638;11.714;2023-07-13T14:38:30;29.10;81.00
59572;DHT22;70118;45.638;11.714;2023-07-13T14:40:56;29.30;81.00
59572;DHT22;70118;45.638;11.714;2023-07-13T14:43:22;29.20;81.10
59572;DHT22;70118;45.638;11.714;2023-07-13T14:45:50;29.30;81.30
59572;DHT22;70118;45.638;11.714;2023-07-13T14:48:21;29.20;81.30
59572;DHT22;70118;45.638;11.714;2023-07-13T14:50:56;29.30;81.40
59572;DHT22;70118;45.638;11.714;2023-07-13T14:53:22;29.30;81.70
59572;DHT22;70118;45.638;11.714;2023-07-13T14:55:49;29.20;81.70
59572;DHT22;70118;45.638;11.714;2023-07-13T14:58:14;29.30;81.70
59572;DHT22;70118;45.638;11.714;2023-07-13T15:00:41;29.30;81.70
59572;DHT22;70118;45.638;11.714;2023-07-13T15:03:19;29.30;81.70
59572;DHT22;70118;45.638;11.714;2023-07-13T15:05:47;29.30;81.90
59572;DHT22;70118;45.638;11.714;2023-07-13T15:08:13;29.30;81.80
59572;DHT22;70118;45.638;11.714;2023-07-13T15:10:40;29.30;81.90
59572;DHT22;70118;45.638;11.714;2023-07-13T15:13:21;29.30;81.80
59572;DHT22;70118;45.638;11.714;2023-07-13T15:15:51;29.30;81.70
59572;DHT22;70118;45.638;11.714;2023-07-13T15:18:21;29.20;81.90
59572;DHT22;70118;45.638;11.714;2023-07-13T15:20:48;29.20;81.90
59572;DHT22;70118;45.638;11.714;2023-07-13T15:23:16;29.20;82.10
59572;DHT22;70118;45.638;11.714;2023-07-13T15:25:43;29.20;82.10
59572;DHT22;70118;45.638;11.714;2023-07-13T15:28:09;29.30;82.10
59572;DHT22;70118;45.638;11.714;2023-07-13T15:30:42;29.20;82.20
59572;DHT22;70118;45.638;11.714;2023-07-13T15:35:40;29.20;82.20
59572;DHT22;70118;45.638;11.714;2023-07-13T15:38:16;29.20;82.20
59572;DHT22;70118;45.638;11.714;2023-07-13T15:40:42;29.20;82.30
59572;DHT22;70118;45.638;11.714;2023-07-13T15:43:13;29.30;82.40
59572;DHT22;70118;45.638;11.714;2023-07-13T15:45:40;29.30;82.50
59572;DHT22;70118;45.638;11.714;2023-07-13T15:48:18;29.30;82.20
59572;DHT22;70118;45.638;11.714;2023-07-13T15:50:48;29.40;81.90
59572;DHT22;70118;45.638;11.714;2023-07-13T15:53:27;29.30;81.90
59572;DHT22;70118;45.638;11.714;2023-07-13T15:55:54;29.30;81.50
59572;DHT22;70118;45.638;11.714;2023-07-13T15:58:20;29.30;81.40
59572;DHT22;70118;45.638;11.714;2023-07-13T16:00:47;29.20;81.60
59572;DHT22;70118;45.638;11.714;2023-07-13T16:03:15;29.20;81.50
59572;DHT22;70118;45.638;11.714;2023-07-13T16:05:41;29.30;80.90
59572;DHT22;70118;45.638;11.714;2023-07-13T16:08:20;29.20;81.10
59572;DHT22;70118;45.638;11.714;2023-07-13T16:10:48;29.20;81.40
59572;DHT22;70118;45.638;11.714;2023-07-13T16:13:15;29.20;81.20
59572;DHT22;70118;45.638;11.714;2023-07-13T16:15:41;29.20;80.90
59572;DHT22;70118;45.638;11.714;2023-07-13T16:18:13;29.10;80.80
59572;DHT22;70118;45.638;11.714;2023-07-13T16:20:46;29.10;80.00
59572;DHT22;70118;45.638;11.714;2023-07-13T16:23:13;29.20;80.70
59572;DHT22;70118;45.638;11.714;2023-07-13T16:25:40;29.10;80.40
59572;DHT22;70118;45.638;11.714;2023-07-13T16:28:08;29.00;79.80
59572;DHT22;70118;45.638;11.714;2023-07-13T16:30:34;29.10;79.70
59572;DHT22;70118;45.638;11.714;2023-07-13T16:33:02;29.00;79.60
59572;DHT22;70118;45.638;11.714;2023-07-13T16:35:35;29.00;79.80
59572;DHT22;70118;45.638;11.714;2023-07-13T16:38:17;29.10;80.10
59572;DHT22;70118;45.638;11.714;2023-07-13T16:40:43;29.10;80.50
59572;DHT22;70118;45.638;11.714;2023-07-13T16:43:15;29.10;81.10
59572;DHT22;70118;45.638;11.714;2023-07-13T16:45:42;29.00;80.70
59572;DHT22;70118;45.638;11.714;2023-07-13T16:48:15;29.10;80.90
59572;DHT22;70118;45.638;11.714;2023-07-13T16:50:42;29.10;81.80
59572;DHT22;70118;45.638;11.714;2023-07-13T16:53:23;29.10;82.00
59572;DHT22;70118;45.638;11.714;2023-07-13T16:55:50;29.10;82.30
59572;DHT22;70118;45.638;11.714;2023-07-13T16:58:16;29.10;81.50
59572;DHT22;70118;45.638;11.714;2023-07-13T17:00:43;29.10;82.50
59572;DHT22;70118;45.638;11.714;2023-07-13T17:03:09;29.10;82.00
59572;DHT22;70118;45.638;11.714;2023-07-13T17:05:42;29.10;82.70
59572;DHT22;70118;45.638;11.714;2023-07-13T17:08:13;29.00;84.50
59572;DHT22;70118;45.638;11.714;2023-07-13T17:10:40;28.90;85.10
59572;DHT22;70118;45.638;11.714;2023-07-13T17:13:11;28.80;84.80
59572;DHT22;70118;45.638;11.714;2023-07-13T17:15:38;28.80;86.30
59572;DHT22;70118;45.638;11.714;2023-07-13T17:18:04;28.80;86.40
59572;DHT22;70118;45.638;11.714;2023-07-13T17:20:38;28.70;86.80
59572;DHT22;70118;45.638;11.714;2023-07-13T17:23:19;28.80;88.60
59572;DHT22;70118;45.638;11.714;2023-07-13T17:25:47;28.70;89.00
59572;DHT22;70118;45.638;11.714;2023-07-13T17:28:14;28.70;88.00
59572;DHT22;70118;45.638;11.714;2023-07-13T17:30:41;28.60;87.90
59572;DHT22;70118;45.638;11.714;2023-07-13T17:33:30;28.70;88.00
59572;DHT22;70118;45.638;11.714;2023-07-13T17:35:58;28.70;88.80
59572;DHT22;70118;45.638;11.714;2023-07-13T17:38:45;28.70;87.90
59572;DHT22;70118;45.638;11.714;2023-07-13T17:41:16;28.90;87.80
59572;DHT22;70118;45.638;11.714;2023-07-13T17:43:46;29.00;86.60